Time;durP1;ratioP1;P1;durP2;ratioP2;P2;SDS_P1;SDS_P2;PMS_P1;PMS_P2;Temp;Humidity;BMP_temperature;BMP_pressure;BME280_temperature;BME280_humidity;BME280_pressure;Samples;Min_cycle;Max_cycle;Signal;HPM_P1;HPM_P2
2021/11/11 00:00:22;;;;;;;9.70;7.30;;;12.90;97.40;;;;;;5028034;28;20049;-59
2021/11/11 00:02:49;;;;;;;10.27;7.47;;;12.90;97.40;;;;;;5027659;28;20085;-60
2021/11/11 00:05:16;;;;;;;8.88;6.97;;;12.90;97.40;;;;;;5028026;28;20045;-60
2021/11/11 00:07:43;;;;;;;13.02;7.82;;;12.80;97.40;;;;;;5028160;28;20186;-60
2021/11/11 00:10:11;;;;;;;10.73;7.88;;;12.80;97.30;;;;;;5026236;28;20650;-60
2021/11/11 00:12:37;;;;;;;10.68;7.75;;;12.80;97.30;;;;;;5027063;28;20076;-60
2021/11/11 00:15:07;;;;;;;12.85;8.00;;;12.80;97.30;;;;;;5029964;28;20562;-61
2021/11/11 00:17:34;;;;;;;10.50;8.10;;;12.80;97.30;;;;;;5029484;28;20100;-60
2021/11/11 00:20:01;;;;;;;10.18;6.93;;;12.80;97.30;;;;;;5029487;28;20077;-59
2021/11/11 00:22:28;;;;;;;12.38;8.60;;;12.80;97.20;;;;;;5029123;28;20709;-60
2021/11/11 00:24:54;;;;;;;9.90;7.28;;;12.80;97.20;;;;;;5030024;28;20085;-62
2021/11/11 00:27:21;;;;;;;13.07;6.43;;;12.80;97.20;;;;;;5031006;28;20072;-60
2021/11/11 00:29:48;;;;;;;9.60;5.75;;;12.80;97.10;;;;;;5031112;28;20076;-60
2021/11/11 00:32:15;;;;;;;7.07;5.97;;;12.80;97.10;;;;;;5029479;28;20588;-61
2021/11/11 00:34:44;;;;;;;9.65;5.70;;;12.80;97.00;;;;;;5029503;28;20081;-60
2021/11/11 00:37:10;;;;;;;8.48;5.03;;;12.80;97.10;;;;;;5031213;28;20049;-60
2021/11/11 00:39:37;;;;;;;6.10;3.53;;;12.90;97.00;;;;;;5029720;28;20075;-59
2021/11/11 00:42:05;;;;;;;5.05;3.80;;;12.80;96.90;;;;;;5030806;28;20042;-59
2021/11/11 00:44:31;;;;;;;4.57;3.72;;;12.80;96.80;;;;;;5030709;28;20084;-59
2021/11/11 00:46:59;;;;;;;4.30;3.33;;;12.80;96.80;;;;;;5030861;28;20073;-62
2021/11/11 00:49:26;;;;;;;4.75;3.58;;;12.80;96.90;;;;;;5030821;28;20081;-59
2021/11/11 00:51:53;;;;;;;6.22;3.28;;;12.80;96.90;;;;;;5030820;28;20069;-63
2021/11/11 00:54:19;;;;;;;3.55;3.03;;;12.80;96.90;;;;;;5030407;28;20080;-59
2021/11/11 00:56:46;;;;;;;5.18;2.70;;;12.80;96.90;;;;;;5030669;28;20572;-60
2021/11/11 00:59:13;;;;;;;3.67;2.30;;;12.80;96.80;;;;;;5030334;28;20053;-59
2021/11/11 01:01:40;;;;;;;2.63;1.95;;;12.80;96.80;;;;;;5030439;28;20141;-60
2021/11/11 01:04:07;;;;;;;3.63;1.73;;;12.80;96.70;;;;;;5030746;28;20256;-61
2021/11/11 01:06:34;;;;;;;4.75;1.90;;;12.70;96.60;;;;;;5024458;28;20049;-60
2021/11/11 01:09:00;;;;;;;7.47;1.83;;;12.80;96.60;;;;;;5030996;28;20084;-60
2021/11/11 01:11:27;;;;;;;9.02;2.00;;;12.70;96.60;;;;;;5031401;28;20088;-61
2021/11/11 01:14:15;;;;;;;2.35;1.40;;;12.70;96.70;;;;;;5029976;28;20497;-60
2021/11/11 01:16:42;;;;;;;5.38;1.52;;;12.70;96.60;;;;;;5030316;28;20074;-61
2021/11/11 01:19:09;;;;;;;2.08;1.30;;;12.70;96.50;;;;;;5027539;28;20045;-59
2021/11/11 01:21:36;;;;;;;2.30;1.40;;;12.80;96.60;;;;;;5027745;28;20132;-58
2021/11/11 01:24:03;;;;;;;2.38;1.55;;;12.60;96.60;;;;;;5029306;28;20128;-60
2021/11/11 01:26:29;;;;;;;6.38;2.25;;;12.60;96.60;;;;;;5030079;28;20091;-60
2021/11/11 01:28:56;;;;;;;9.07;2.40;;;12.60;96.60;;;;;;5030396;28;20087;-60
2021/11/11 01:31:23;;;;;;;2.63;1.77;;;12.60;96.70;;;;;;5029962;28;20782;-59
2021/11/11 01:33:50;;;;;;;2.03;1.42;;;12.60;96.70;;;;;;5030099;28;20140;-60
2021/11/11 01:36:16;;;;;;;4.57;1.38;;;12.60;96.70;;;;;;5029637;28;20129;-59
2021/11/11 01:38:43;;;;;;;2.10;1.42;;;12.60;96.70;;;;;;5030102;28;20119;-59
2021/11/11 01:41:10;;;;;;;2.88;1.40;;;12.60;96.60;;;;;;5029433;28;20111;-60
2021/11/11 01:43:36;;;;;;;3.55;2.42;;;12.50;96.60;;;;;;5029970;28;20104;-60
2021/11/11 01:46:03;;;;;;;5.30;1.23;;;12.50;96.50;;;;;;5028791;28;20091;-60
2021/11/11 01:48:30;;;;;;;1.77;0.93;;;12.60;96.60;;;;;;5029656;28;20584;-60
2021/11/11 01:50:57;;;;;;;2.83;1.35;;;12.60;96.50;;;;;;5029192;28;20084;-59
2021/11/11 01:53:24;;;;;;;2.05;1.50;;;12.60;96.40;;;;;;5029645;28;20092;-60
2021/11/11 01:55:51;;;;;;;2.08;1.17;;;12.60;96.40;;;;;;5029383;28;20080;-60
2021/11/11 01:58:18;;;;;;;1.75;1.13;;;12.60;96.40;;;;;;5028692;28;20468;-60
2021/11/11 02:00:47;;;;;;;2.30;1.23;;;12.60;96.30;;;;;;5029102;28;20079;-60
2021/11/11 02:03:14;;;;;;;2.55;1.08;;;12.50;96.40;;;;;;5029373;28;20512;-60
2021/11/11 02:05:42;;;;;;;1.75;0.93;;;12.50;96.30;;;;;;5011387;28;20088;-60
2021/11/11 02:08:09;;;;;;;3.83;1.50;;;12.40;96.30;;;;;;5027990;28;20080;-60
2021/11/11 02:10:35;;;;;;;1.58;1.10;;;12.30;96.40;;;;;;5028987;28;20062;-60
2021/11/11 02:13:04;;;;;;;4.10;1.30;;;12.30;96.70;;;;;;5027993;28;20111;-60
2021/11/11 02:15:31;;;;;;;2.30;1.40;;;12.20;96.40;;;;;;5028094;28;20042;-59
2021/11/11 02:17:58;;;;;;;2.78;1.40;;;12.20;96.40;;;;;;5028976;28;20133;-59
2021/11/11 02:20:26;;;;;;;4.00;1.35;;;12.20;96.40;;;;;;5029031;28;20446;-59
2021/11/11 02:22:54;;;;;;;1.85;1.17;;;12.20;96.40;;;;;;5027530;28;20081;-59
2021/11/11 02:25:22;;;;;;;2.47;1.38;;;12.20;96.30;;;;;;5029198;28;20477;-59
2021/11/11 02:27:49;;;;;;;2.95;1.67;;;12.20;96.30;;;;;;5027903;28;20084;-60
2021/11/11 02:30:17;;;;;;;3.85;1.63;;;12.10;96.30;;;;;;5029311;28;20054;-59
2021/11/11 02:32:45;;;;;;;2.00;1.30;;;12.00;96.30;;;;;;5028395;28;20084;-59
2021/11/11 02:35:12;;;;;;;3.05;1.75;;;12.10;96.40;;;;;;5027065;28;20093;-59
2021/11/11 02:37:42;;;;;;;4.00;2.20;;;12.10;96.40;;;;;;5026767;28;20077;-59
2021/11/11 02:40:19;;;;;;;5.90;1.65;;;12.00;96.30;;;;;;5028570;28;20428;-60
2021/11/11 02:42:46;;;;;;;3.20;1.98;;;12.00;96.40;;;;;;5028200;28;20092;-59
2021/11/11 02:45:16;;;;;;;4.43;2.00;;;12.00;96.30;;;;;;5028559;28;20052;-59
2021/11/11 02:47:43;;;;;;;3.40;1.80;;;12.00;96.30;;;;;;5028283;28;20037;-59
2021/11/11 02:50:10;;;;;;;3.85;1.90;;;11.90;96.20;;;;;;5028624;28;20470;-59
2021/11/11 02:52:37;;;;;;;8.98;2.28;;;11.90;96.20;;;;;;5027154;28;20045;-59
2021/11/11 02:55:06;;;;;;;5.72;2.17;;;11.80;96.30;;;;;;5028708;28;20128;-59
2021/11/11 02:57:35;;;;;;;6.13;2.65;;;11.70;96.50;;;;;;5028414;28;20050;-59
2021/11/11 03:00:13;;;;;;;4.95;2.15;;;11.60;96.50;;;;;;5018111;28;20090;-59
2021/11/11 03:02:42;;;;;;;3.17;2.00;;;11.60;96.60;;;;;;5028301;28;20095;-59
2021/11/11 03:05:11;;;;;;;3.88;2.45;;;11.60;96.50;;;;;;5028080;28;20042;-59
2021/11/11 03:07:38;;;;;;;4.60;3.03;;;11.60;96.40;;;;;;5028205;28;20115;-59
2021/11/11 03:10:06;;;;;;;4.82;3.08;;;11.60;96.50;;;;;;5028347;28;20042;-59
2021/11/11 03:12:33;;;;;;;4.22;3.40;;;11.50;96.50;;;;;;5028015;28;20108;-59
2021/11/11 03:14:59;;;;;;;7.43;3.50;;;11.40;96.80;;;;;;5028424;28;20053;-60
2021/11/11 03:17:26;;;;;;;5.88;3.97;;;11.50;96.60;;;;;;5027868;28;20128;-59
2021/11/11 03:19:53;;;;;;;7.10;4.47;;;11.50;96.50;;;;;;5028401;28;20050;-59
2021/11/11 03:22:20;;;;;;;9.57;4.45;;;11.40;96.50;;;;;;5028324;28;20136;-59
2021/11/11 03:24:50;;;;;;;10.05;5.25;;;11.50;96.60;;;;;;5027972;28;20527;-60
2021/11/11 03:27:17;;;;;;;8.52;5.47;;;11.50;96.70;;;;;;5008409;28;20512;-60
2021/11/11 03:29:45;;;;;;;6.10;4.50;;;11.50;96.80;;;;;;5019704;28;20184;-58
2021/11/11 03:32:11;;;;;;;8.50;5.30;;;11.50;96.90;;;;;;5027562;28;20080;-59
2021/11/11 03:34:38;;;;;;;7.93;4.50;;;11.50;96.90;;;;;;5027468;28;20100;-59
2021/11/11 03:37:05;;;;;;;6.75;4.38;;;11.60;96.90;;;;;;5028026;28;20158;-60
2021/11/11 03:39:32;;;;;;;12.52;5.40;;;11.60;96.90;;;;;;5027814;28;20068;-60
2021/11/11 03:41:59;;;;;;;5.38;4.20;;;11.60;96.90;;;;;;5028007;28;20463;-60
2021/11/11 03:44:26;;;;;;;6.43;4.88;;;11.60;97.00;;;;;;5027687;28;20338;-59
2021/11/11 03:46:55;;;;;;;7.65;5.18;;;11.60;96.90;;;;;;5028140;28;20108;-60
2021/11/11 03:49:23;;;;;;;5.28;4.15;;;11.70;97.00;;;;;;5031784;28;20494;-60
2021/11/11 03:51:49;;;;;;;8.50;5.35;;;11.70;97.00;;;;;;5032056;28;20758;-60
2021/11/11 03:54:20;;;;;;;9.13;5.65;;;11.70;97.00;;;;;;5031756;28;20128;-59
2021/11/11 03:56:48;;;;;;;10.40;7.38;;;11.70;97.00;;;;;;5030858;28;20076;-59
2021/11/11 03:59:15;;;;;;;9.38;7.00;;;11.80;97.00;;;;;;5031709;28;20520;-60
2021/11/11 04:01:43;;;;;;;11.52;6.68;;;11.80;96.90;;;;;;5028147;28;20065;-60
2021/11/11 04:04:13;;;;;;;7.25;5.90;;;11.80;97.00;;;;;;5031590;28;20100;-60
2021/11/11 04:06:41;;;;;;;7.82;6.35;;;11.80;97.00;;;;;;5031238;28;20072;-60
2021/11/11 04:09:08;;;;;;;11.30;6.28;;;11.80;97.00;;;;;;5031700;28;20054;-60
2021/11/11 04:11:35;;;;;;;16.25;7.88;;;11.80;96.90;;;;;;5031478;28;20128;-59
2021/11/11 04:14:01;;;;;;;9.07;7.30;;;11.80;96.80;;;;;;5031964;28;20099;-59
2021/11/11 04:16:28;;;;;;;10.05;7.53;;;11.80;96.90;;;;;;5030120;28;20080;-59
2021/11/11 04:18:55;;;;;;;9.73;8.07;;;11.80;96.80;;;;;;5031671;28;20056;-59
2021/11/11 04:21:22;;;;;;;10.05;8.32;;;11.90;96.90;;;;;;5029788;28;20057;-59
2021/11/11 04:23:51;;;;;;;10.20;7.43;;;11.80;96.80;;;;;;5031539;28;20082;-59
2021/11/11 04:26:23;;;;;;;16.25;9.15;;;11.70;96.80;;;;;;5031516;28;20132;-59
2021/11/11 04:29:02;;;;;;;11.38;8.35;;;11.70;97.10;;;;;;5031536;28;20092;-60
2021/11/11 04:31:32;;;;;;;11.93;8.27;;;11.70;96.90;;;;;;5030094;28;20481;-59
2021/11/11 04:34:02;;;;;;;12.32;8.90;;;11.70;96.90;;;;;;5031213;28;20494;-60
2021/11/11 04:39:18;;;;;;;10.43;8.80;;;11.60;96.70;;;;;;5026250;28;20080;-60
2021/11/11 04:42:04;;;;;;;11.27;8.93;;;11.70;96.60;;;;;;5030953;28;20068;-60
2021/11/11 04:52:33;;;;;;;13.00;8.15;;;11.40;96.30;;;;;;5029835;28;20104;-61
2021/11/11 05:05:59;;;;;;;12.13;8.98;;;11.20;96.50;;;;;;5016811;28;20046;-60
2021/11/11 05:08:26;;;;;;;17.98;10.65;;;11.10;96.50;;;;;;5029177;28;20073;-60
2021/11/11 05:10:53;;;;;;;13.40;8.48;;;11.10;96.40;;;;;;5030595;28;20496;-60
2021/11/11 05:13:20;;;;;;;10.20;7.97;;;11.10;96.40;;;;;;5030218;28;20119;-60
2021/11/11 05:15:47;;;;;;;13.23;9.65;;;11.00;96.40;;;;;;5030431;28;20091;-60
2021/11/11 05:18:14;;;;;;;12.52;8.77;;;11.00;96.50;;;;;;5030210;28;20517;-59
2021/11/11 05:20:40;;;;;;;10.52;7.97;;;10.90;96.50;;;;;;5030392;28;20459;-60
2021/11/11 05:23:07;;;;;;;7.65;6.55;;;10.90;96.40;;;;;;5029819;28;20069;-60
2021/11/11 05:25:34;;;;;;;8.65;6.60;;;10.80;96.40;;;;;;5030114;28;20132;-59
2021/11/11 05:28:01;;;;;;;14.70;8.43;;;10.80;96.50;;;;;;5029615;28;20076;-59
2021/11/11 05:30:28;;;;;;;9.30;7.20;;;10.80;96.50;;;;;;5028877;28;20086;-59
2021/11/11 05:32:55;;;;;;;10.82;7.80;;;10.70;96.40;;;;;;5029716;28;20137;-59
2021/11/11 05:35:22;;;;;;;13.00;8.55;;;10.70;96.50;;;;;;5030174;28;20472;-59
2021/11/11 05:37:48;;;;;;;13.82;9.20;;;10.70;96.50;;;;;;5028762;28;20128;-59
2021/11/11 05:40:16;;;;;;;13.00;9.10;;;10.60;96.50;;;;;;5028904;28;20049;-59
2021/11/11 05:42:43;;;;;;;11.13;8.90;;;10.60;96.60;;;;;;5029569;28;20049;-59
2021/11/11 05:45:10;;;;;;;12.35;8.77;;;10.60;96.60;;;;;;5030015;28;20053;-58
2021/11/11 05:47:37;;;;;;;12.10;9.23;;;10.60;96.60;;;;;;5029893;28;20069;-59
2021/11/11 05:50:04;;;;;;;12.25;8.90;;;10.50;96.70;;;;;;5029767;28;20045;-59
2021/11/11 05:52:31;;;;;;;11.95;8.98;;;10.60;96.70;;;;;;5029828;28;20049;-59
2021/11/11 05:54:58;;;;;;;12.05;8.55;;;10.60;96.80;;;;;;5011930;28;20149;-59
2021/11/11 05:57:24;;;;;;;15.23;10.75;;;10.60;96.80;;;;;;5029649;28;20072;-59
2021/11/11 05:59:51;;;;;;;13.13;8.75;;;10.50;96.80;;;;;;5029520;28;20076;-59
2021/11/11 06:02:18;;;;;;;13.65;8.82;;;10.50;96.80;;;;;;5029349;28;20084;-59
2021/11/11 06:04:45;;;;;;;12.45;8.65;;;10.60;96.80;;;;;;5029134;28;20045;-59
2021/11/11 06:07:12;;;;;;;17.38;8.65;;;10.50;96.60;;;;;;5029483;28;20103;-59
2021/11/11 06:09:38;;;;;;;14.05;9.13;;;10.40;96.60;;;;;;5029055;28;20045;-59
2021/11/11 06:12:06;;;;;;;13.23;9.45;;;10.50;96.70;;;;;;5029145;28;20551;-60
2021/11/11 06:14:33;;;;;;;14.68;9.13;;;10.40;96.70;;;;;;5029009;28;20084;-60
2021/11/11 06:17:00;;;;;;;12.32;8.70;;;10.40;96.80;;;;;;5029497;28;20050;-59
2021/11/11 06:19:27;;;;;;;14.65;9.80;;;10.40;96.90;;;;;;5029005;28;20100;-61
2021/11/11 06:21:55;;;;;;;17.10;9.10;;;10.40;97.00;;;;;;5028050;28;20084;-60
2021/11/11 06:24:22;;;;;;;18.95;10.32;;;10.40;97.00;;;;;;5027705;28;20049;-63
2021/11/11 06:26:49;;;;;;;18.13;9.52;;;10.40;97.00;;;;;;5028803;28;20099;-60
2021/11/11 06:29:15;;;;;;;16.95;9.65;;;10.40;97.00;;;;;;5027207;28;20076;-60
2021/11/11 06:31:42;;;;;;;15.52;9.18;;;10.40;97.30;;;;;;5028894;28;20069;-60
2021/11/11 06:34:09;;;;;;;16.95;9.55;;;10.40;97.00;;;;;;5028516;28;20595;-59
2021/11/11 06:36:36;;;;;;;15.63;9.18;;;10.30;96.80;;;;;;5027729;28;20187;-59
2021/11/11 06:39:04;;;;;;;12.48;8.90;;;10.30;96.90;;;;;;5025651;28;20300;-60
2021/11/11 06:41:31;;;;;;;16.08;10.60;;;10.20;96.80;;;;;;5027663;28;20132;-60
2021/11/11 06:43:57;;;;;;;15.50;9.40;;;10.20;96.80;;;;;;5028257;28;20137;-60
2021/11/11 06:46:24;;;;;;;16.55;9.93;;;10.20;96.90;;;;;;5027906;28;20068;-60
2021/11/11 06:48:51;;;;;;;16.05;10.35;;;10.20;97.00;;;;;;5028517;28;20046;-60
2021/11/11 06:51:18;;;;;;;14.80;9.95;;;10.20;97.00;;;;;;5027964;28;20072;-60
2021/11/11 06:53:45;;;;;;;14.55;8.48;;;10.20;97.10;;;;;;5026662;28;20041;-62
2021/11/11 06:56:12;;;;;;;18.48;9.05;;;10.20;97.20;;;;;;5026539;28;20132;-60
2021/11/11 06:58:38;;;;;;;13.20;9.02;;;10.20;97.20;;;;;;5028394;28;20468;-60
2021/11/11 07:01:05;;;;;;;15.93;9.68;;;10.20;97.00;;;;;;5028416;28;20046;-59
2021/11/11 07:03:32;;;;;;;14.63;9.35;;;10.10;97.00;;;;;;5028442;28;20045;-60
2021/11/11 07:05:59;;;;;;;15.48;9.45;;;10.10;97.00;;;;;;5027442;28;20049;-60
2021/11/11 07:08:26;;;;;;;17.40;9.90;;;10.10;97.00;;;;;;5026863;28;20049;-56
2021/11/11 07:10:53;;;;;;;15.93;9.25;;;10.10;97.00;;;;;;5026960;28;20096;-57
2021/11/11 07:13:21;;;;;;;13.63;8.48;;;10.00;97.00;;;;;;5027960;28;20057;-57
2021/11/11 07:15:48;;;;;;;12.52;8.63;;;10.10;97.10;;;;;;5027456;28;20104;-56
2021/11/11 07:18:15;;;;;;;21.45;9.80;;;10.10;97.10;;;;;;5027730;28;20095;-56
2021/11/11 07:20:46;;;;;;;17.35;9.30;;;10.10;97.10;;;;;;5027411;28;20050;-56
2021/11/11 07:23:14;;;;;;;18.17;9.32;;;10.10;97.10;;;;;;5028845;28;20049;-56
2021/11/11 07:25:41;;;;;;;21.48;10.15;;;10.20;97.10;;;;;;5031187;28;20053;-57
2021/11/11 07:28:07;;;;;;;13.85;8.80;;;10.20;97.10;;;;;;5031137;28;20089;-56
2021/11/11 07:30:34;;;;;;;13.70;9.30;;;10.20;97.10;;;;;;5031470;28;20140;-56
2021/11/11 07:33:01;;;;;;;16.52;10.05;;;10.30;97.10;;;;;;5031039;28;20058;-56
2021/11/11 07:35:28;;;;;;;14.32;8.50;;;10.20;97.10;;;;;;5031175;28;20463;-55
2021/11/11 07:37:55;;;;;;;16.77;7.80;;;10.20;97.10;;;;;;5030912;28;20041;-58
2021/11/11 07:40:24;;;;;;;17.95;10.45;;;10.20;97.10;;;;;;5031602;28;20132;-58
2021/11/11 07:42:52;;;;;;;16.55;9.55;;;10.30;97.20;;;;;;5030256;28;20565;-56
2021/11/11 07:45:24;;;;;;;21.92;10.00;;;10.30;97.10;;;;;;5027729;28;20057;-57
2021/11/11 07:47:56;;;;;;;13.50;9.10;;;10.40;97.10;;;;;;5028184;28;20080;-56
2021/11/11 07:50:30;;;;;;;16.70;9.02;;;10.40;97.00;;;;;;5031035;28;20060;-55
2021/11/11 07:52:59;;;;;;;16.92;9.45;;;10.40;97.00;;;;;;5031259;28;20061;-55
2021/11/11 07:55:27;;;;;;;17.05;10.73;;;10.40;97.10;;;;;;5029920;28;20091;-58
2021/11/11 07:57:54;;;;;;;13.85;8.45;;;10.40;97.10;;;;;;5030894;28;20087;-56
2021/11/11 08:00:21;;;;;;;16.50;9.07;;;10.50;97.20;;;;;;5031421;28;20099;-56
2021/11/11 08:02:48;;;;;;;14.35;9.68;;;10.50;97.10;;;;;;5031176;28;20073;-55
2021/11/11 08:05:16;;;;;;;15.27;9.98;;;10.60;97.30;;;;;;5031188;28;20666;-55
2021/11/11 08:07:44;;;;;;;17.17;9.70;;;10.60;97.10;;;;;;5030843;28;20558;-57
2021/11/11 08:10:11;;;;;;;15.15;10.38;;;10.70;97.10;;;;;;5030805;28;20333;-57
2021/11/11 08:12:39;;;;;;;15.93;9.35;;;10.70;97.10;;;;;;5030696;28;20045;-57
2021/11/11 08:15:06;;;;;;;16.08;9.88;;;10.80;97.00;;;;;;5029449;28;20041;-58
2021/11/11 08:17:33;;;;;;;15.90;10.10;;;10.80;96.90;;;;;;5031153;28;20077;-58
2021/11/11 08:20:00;;;;;;;16.60;10.38;;;10.90;96.90;;;;;;5030705;28;20092;-57
2021/11/11 08:22:35;;;;;;;16.88;10.30;;;10.90;96.90;;;;;;5026358;28;20073;-58
2021/11/11 08:25:03;;;;;;;19.45;11.55;;;10.90;96.90;;;;;;5029172;28;20045;-58
2021/11/11 08:27:31;;;;;;;17.55;11.73;;;10.90;96.90;;;;;;5030851;28;20053;-58
2021/11/11 08:29:58;;;;;;;18.10;11.02;;;11.00;96.80;;;;;;5030438;28;20092;-59
2021/11/11 08:32:25;;;;;;;17.40;11.05;;;11.00;96.80;;;;;;5030075;28;20531;-59
2021/11/11 08:34:52;;;;;;;19.95;11.77;;;11.00;96.90;;;;;;5028211;28;20096;-58
2021/11/11 08:37:19;;;;;;;21.95;13.07;;;11.00;96.80;;;;;;5030158;28;20069;-64
2021/11/11 08:39:46;;;;;;;22.52;11.90;;;11.10;96.90;;;;;;5029813;28;20089;-60
2021/11/11 08:42:13;;;;;;;21.23;13.27;;;11.10;96.90;;;;;;5029725;28;20081;-58
2021/11/11 08:44:42;;;;;;;23.45;13.60;;;11.10;96.90;;;;;;5030156;28;20143;-58
2021/11/11 08:47:17;;;;;;;20.15;13.40;;;11.20;96.80;;;;;;5030668;28;20049;-59
2021/11/11 08:49:45;;;;;;;17.02;11.80;;;11.30;96.80;;;;;;5024064;28;20049;-58
2021/11/11 08:52:12;;;;;;;21.20;12.27;;;11.40;96.80;;;;;;5029332;28;20124;-58
2021/11/11 08:54:39;;;;;;;18.30;12.48;;;11.50;96.80;;;;;;5029748;28;20484;-58
2021/11/11 08:57:07;;;;;;;22.88;13.45;;;11.50;96.60;;;;;;5030421;28;20053;-58
2021/11/11 08:59:41;;;;;;;19.90;11.70;;;11.60;96.70;;;;;;5029659;28;20119;-58
2021/11/11 09:02:10;;;;;;;20.08;12.73;;;11.70;96.70;;;;;;5029516;28;20084;-58
2021/11/11 09:04:37;;;;;;;19.77;12.77;;;11.70;96.70;;;;;;5028890;28;20107;-58
2021/11/11 09:07:05;;;;;;;18.90;12.20;;;11.80;96.60;;;;;;5030112;28;20089;-58
2021/11/11 09:09:32;;;;;;;19.02;12.27;;;11.90;96.70;;;;;;5030005;28;20303;-56
2021/11/11 09:11:58;;;;;;;17.25;12.13;;;12.00;96.70;;;;;;5028087;28;20600;-58
2021/11/11 09:14:25;;;;;;;17.92;11.63;;;12.00;96.70;;;;;;5030252;28;20131;-58
2021/11/11 09:16:52;;;;;;;20.15;12.68;;;12.10;96.70;;;;;;5029435;28;20049;-58
2021/11/11 09:19:19;;;;;;;20.05;11.40;;;12.20;96.70;;;;;;5030016;28;20045;-58
2021/11/11 09:21:46;;;;;;;17.48;10.57;;;12.20;96.60;;;;;;5029820;28;20103;-59
2021/11/11 09:24:13;;;;;;;17.23;11.02;;;12.30;96.60;;;;;;5030154;28;20081;-58
2021/11/11 09:26:40;;;;;;;18.33;11.50;;;12.30;96.50;;;;;;5029686;28;20376;-57
2021/11/11 09:29:07;;;;;;;17.05;12.07;;;12.40;96.50;;;;;;5028815;28;20049;-56
2021/11/11 09:31:35;;;;;;;17.60;12.55;;;12.40;96.40;;;;;;5026968;28;20053;-56
2021/11/11 09:34:02;;;;;;;18.83;12.02;;;12.50;96.40;;;;;;5029941;28;20101;-57
2021/11/11 09:36:29;;;;;;;18.90;12.43;;;12.50;96.30;;;;;;5028454;28;20053;-56
2021/11/11 09:38:56;;;;;;;18.48;11.63;;;12.50;96.20;;;;;;5028808;28;20049;-57
2021/11/11 09:41:23;;;;;;;25.80;11.98;;;12.70;96.20;;;;;;5029357;28;20045;-58
2021/11/11 09:43:49;;;;;;;16.52;9.95;;;12.50;96.10;;;;;;5029815;28;20092;-59
2021/11/11 09:46:17;;;;;;;21.70;11.68;;;12.60;96.00;;;;;;5028935;28;20099;-56
2021/11/11 09:48:44;;;;;;;16.08;10.52;;;12.60;96.00;;;;;;5028337;28;20087;-57
2021/11/11 09:51:14;;;;;;;18.25;10.98;;;12.60;95.90;;;;;;5027901;28;20087;-60
2021/11/11 09:53:50;;;;;;;15.10;9.60;;;12.70;96.00;;;;;;5029566;28;20497;-55
2021/11/11 09:59:16;;;;;;;20.08;10.18;;;12.70;95.80;;;;;;5021282;28;20153;-57
2021/11/11 10:01:45;;;;;;;13.63;9.43;;;12.70;95.80;;;;;;5028902;28;20050;-59
2021/11/11 10:04:13;;;;;;;18.05;10.90;;;12.70;95.80;;;;;;5028383;28;20049;-56
2021/11/11 10:06:40;;;;;;;18.90;9.57;;;12.70;95.70;;;;;;5013789;28;20132;-58
2021/11/11 10:09:19;;;;;;;18.40;9.95;;;12.80;95.70;;;;;;5029149;28;20076;-58
2021/11/11 10:11:54;;;;;;;15.63;9.70;;;12.80;95.60;;;;;;5028965;28;20045;-57
2021/11/11 10:14:25;;;;;;;15.55;9.75;;;12.80;95.50;;;;;;5029054;28;20359;-57
2021/11/11 10:16:58;;;;;;;17.17;10.57;;;12.70;95.30;;;;;;5027604;28;20042;-57
2021/11/11 10:19:26;;;;;;;16.02;9.25;;;12.80;95.50;;;;;;5028945;28;20147;-57
2021/11/11 10:22:04;;;;;;;14.48;8.45;;;12.80;95.50;;;;;;5028624;28;20128;-59
2021/11/11 10:27:25;;;;;;;17.20;8.40;;;12.80;95.00;;;;;;5028545;28;20053;-57
2021/11/11 10:30:04;;;;;;;16.90;9.15;;;12.90;95.20;;;;;;5028827;28;20041;-58
2021/11/11 10:32:32;;;;;;;13.23;8.40;;;12.90;95.30;;;;;;5028513;28;20088;-58
2021/11/11 10:35:01;;;;;;;16.80;8.80;;;12.90;95.40;;;;;;5028462;28;20099;-58
2021/11/11 10:37:31;;;;;;;12.05;6.82;;;13.00;95.30;;;;;;5028584;28;20591;-59
2021/11/11 10:40:03;;;;;;;9.45;6.28;;;13.00;95.00;;;;;;5028701;28;20053;-58
2021/11/11 10:42:32;;;;;;;12.30;5.85;;;13.00;95.10;;;;;;5028310;28;20152;-58
2021/11/11 10:44:59;;;;;;;9.82;5.18;;;13.10;95.00;;;;;;5027102;28;20069;-57
2021/11/11 10:47:30;;;;;;;7.75;5.05;;;13.10;94.40;;;;;;5027179;28;20057;-57
2021/11/11 10:49:57;;;;;;;10.13;5.85;;;13.10;94.10;;;;;;5028124;28;20115;-57
2021/11/11 10:52:36;;;;;;;9.38;5.63;;;13.10;94.40;;;;;;5028736;28;20099;-58
2021/11/11 10:55:09;;;;;;;7.88;4.82;;;13.20;94.60;;;;;;5028097;28;20338;-56
2021/11/11 10:57:42;;;;;;;9.03;4.80;;;13.20;94.20;;;;;;5027959;28;20100;-57
2021/11/11 11:00:25;;;;;;;8.73;4.73;;;13.20;93.70;;;;;;5027573;28;20551;-59
2021/11/11 11:02:54;;;;;;;9.27;5.60;;;13.30;93.90;;;;;;5027901;28;20076;-57
2021/11/11 11:05:45;;;;;;;8.85;5.38;;;13.40;94.00;;;;;;5024435;28;20075;-60
2021/11/11 11:08:15;;;;;;;11.25;5.35;;;13.40;94.10;;;;;;5018934;28;20049;-57
2021/11/11 11:10:44;;;;;;;8.27;4.60;;;13.50;94.20;;;;;;5025069;28;20048;-56
2021/11/11 11:13:16;;;;;;;9.50;4.60;;;13.50;94.10;;;;;;5026972;28;20543;-58
2021/11/11 11:16:00;;;;;;;9.30;4.38;;;13.50;93.90;;;;;;5026355;28;20136;-57
2021/11/11 11:18:29;;;;;;;;;;;13.60;93.80;;;;;;5027629;28;20416;-56
2021/11/11 11:20:58;;;;;;;8.48;4.57;;;13.60;92.70;;;;;;5027842;28;20008;-56
2021/11/11 11:23:38;;;;;;;8.15;4.40;;;13.60;94.00;;;;;;5028160;28;20088;-57
2021/11/11 11:26:22;;;;;;;6.15;3.55;;;13.60;93.70;;;;;;5027541;28;20132;-58
2021/11/11 11:29:15;;;;;;;5.75;4.05;;;13.70;93.10;;;;;;5027260;28;20107;-57
2021/11/11 11:31:52;;;;;;;6.43;3.33;;;13.60;93.30;;;;;;5025397;28;20315;-58
2021/11/11 11:34:27;;;;;;;6.95;3.22;;;13.60;93.80;;;;;;5027676;28;20049;-57
2021/11/11 11:36:57;;;;;;;3.95;2.38;;;13.60;92.40;;;;;;5026649;28;20464;-56
2021/11/11 11:39:29;;;;;;;5.72;2.22;;;13.60;93.10;;;;;;5026508;28;20045;-58
2021/11/11 11:42:09;;;;;;;3.75;2.33;;;13.60;92.80;;;;;;5027699;28;20116;-55
2021/11/11 11:44:44;;;;;;;4.82;1.70;;;13.80;93.00;;;;;;5027506;28;20457;-57
2021/11/11 11:47:21;;;;;;;2.22;1.85;;;13.70;93.00;;;;;;5024507;28;20107;-57
2021/11/11 11:49:52;;;;;;;2.05;1.63;;;13.80;92.70;;;;;;5027531;28;20104;-56
2021/11/11 11:52:19;;;;;;;3.00;1.73;;;13.80;92.70;;;;;;5024491;28;20107;-58
2021/11/11 12:03:23;;;;;;;5.82;1.40;;;13.90;92.20;;;;;;4955991;28;20043;-56
2021/11/11 12:09:08;;;;;;;1.13;0.93;;;13.90;92.10;;;;;;5029501;28;20041;-57
2021/11/11 12:14:32;;;;;;;5.22;1.10;;;14.10;90.80;;;;;;5031214;28;20136;-56
2021/11/11 12:40:01;;;;;;;2.92;1.70;;;14.30;91.00;;;;;;5024448;28;20128;-57
2021/11/11 12:42:53;;;;;;;3.53;1.52;;;14.10;91.30;;;;;;5030448;28;20115;-57
2021/11/11 12:45:34;;;;;;;3.28;1.42;;;14.10;90.60;;;;;;5031133;28;20053;-58
2021/11/11 12:48:04;;;;;;;3.17;1.70;;;14.20;90.80;;;;;;5030599;28;20118;-57
2021/11/11 12:50:48;;;;;;;4.05;2.03;;;14.20;91.50;;;;;;5028925;28;20124;-57
2021/11/11 12:53:16;;;;;;;2.92;1.58;;;14.20;90.50;;;;;;5030177;28;20547;-57
2021/11/11 12:55:53;;;;;;;3.55;1.85;;;14.30;91.60;;;;;;5030696;28;20045;-57
2021/11/11 12:58:21;;;;;;;3.30;1.20;;;14.30;91.70;;;;;;5030151;28;20088;-56
2021/11/11 13:00:49;;;;;;;5.45;1.73;;;14.40;91.50;;;;;;5030709;28;20077;-58
2021/11/11 13:03:17;;;;;;;3.95;1.70;;;14.30;91.10;;;;;;5030097;28;20420;-57
2021/11/11 13:05:58;;;;;;;5.32;1.92;;;14.40;91.40;;;;;;5030093;28;20057;-57
2021/11/11 13:08:54;;;;;;;5.75;1.50;;;14.40;90.80;;;;;;5029379;28;20073;-57
2021/11/11 13:11:29;;;;;;;3.47;1.90;;;14.40;90.10;;;;;;5029128;28;20041;-58
2021/11/11 13:14:19;;;;;;;3.15;1.35;;;14.40;91.10;;;;;;5030300;28;20076;-56
2021/11/11 13:16:55;;;;;;;2.45;1.55;;;14.40;89.90;;;;;;5030160;28;20136;-58
2021/11/11 13:19:38;;;;;;;4.78;1.65;;;14.40;90.10;;;;;;5029626;28;20053;-58
2021/11/11 13:22:22;;;;;;;2.92;1.40;;;14.40;90.00;;;;;;5010415;28;20046;-58
2021/11/11 14:00:09;;;;;;;;;;;;;;;;;;;;;
2021/11/11 16:26:26;;;;;;;5.82;2.42;;;13.50;92.50;;;;;;5024582;28;20185;-57
2021/11/11 16:28:58;;;;;;;12.25;2.50;;;13.40;92.50;;;;;;5028545;28;20496;-56
2021/11/11 16:31:44;;;;;;;5.43;3.58;;;13.40;92.50;;;;;;5025134;28;20064;-58
2021/11/11 16:34:11;;;;;;;7.95;2.40;;;13.40;92.50;;;;;;5026905;28;20057;-56
2021/11/11 16:36:40;;;;;;;5.60;2.70;;;13.40;92.40;;;;;;5025532;28;20152;-57
2021/11/11 16:39:08;;;;;;;4.72;2.45;;;13.40;92.50;;;;;;5027545;28;20063;-56
2021/11/11 16:41:35;;;;;;;6.10;2.22;;;13.40;92.50;;;;;;5026614;28;20046;-57
2021/11/11 16:44:02;;;;;;;6.60;2.50;;;13.40;92.50;;;;;;5026290;28;20520;-56
2021/11/11 16:46:29;;;;;;;6.50;2.85;;;13.40;92.60;;;;;;5027169;28;20077;-57
2021/11/11 16:48:56;;;;;;;7.57;2.80;;;13.40;92.70;;;;;;5025228;28;20072;-55
2021/11/11 16:51:23;;;;;;;5.35;2.13;;;13.40;92.70;;;;;;5026217;28;20100;-57
2021/11/11 16:53:53;;;;;;;5.38;2.38;;;13.30;92.60;;;;;;5027237;28;20053;-56